createdAt,value
2023-04-10T00:00:56.931Z,3.22
2023-04-10T00:03:25.438Z,3.12
2023-04-10T00:05:54.709Z,3.17
2023-04-10T00:08:22.745Z,3.12
2023-04-10T00:10:51.732Z,3.15
2023-04-10T00:13:19.327Z,3.15
2023-04-10T00:15:47.031Z,3.12
2023-04-10T00:18:14.745Z,3.09
2023-04-10T00:20:43.697Z,3.09
2023-04-10T00:23:11.333Z,3.06
2023-04-10T00:25:39.120Z,3.02
2023-04-10T00:28:08.093Z,2.92
2023-04-10T00:30:35.882Z,2.86
2023-04-10T00:33:03.550Z,2.73
2023-04-10T00:35:31.650Z,2.70
2023-04-10T00:37:59.298Z,2.70
2023-04-10T00:40:27.330Z,2.61
2023-04-10T00:42:55.017Z,2.59
2023-04-10T00:45:24.229Z,2.62
2023-04-10T00:47:51.967Z,2.61
2023-04-10T00:50:20.972Z,2.62
2023-04-10T00:52:49.272Z,2.57
2023-04-10T00:55:17.123Z,2.50
2023-04-10T00:57:46.983Z,2.50
2023-04-10T01:00:15.620Z,2.56
2023-04-10T01:02:44.817Z,2.58
2023-04-10T01:05:13.469Z,2.53
2023-04-10T01:07:51.080Z,2.44
2023-04-10T01:10:21.781Z,2.43
2023-04-10T01:12:57.277Z,2.40
2023-04-10T01:15:26.810Z,2.40
2023-04-10T01:17:58.395Z,2.36
2023-04-10T01:20:28.438Z,2.35
2023-04-10T01:23:11.100Z,2.34
2023-04-10T01:25:45.563Z,2.31
2023-04-10T01:28:25.838Z,2.27
2023-04-10T01:30:58.554Z,2.19
2023-04-10T01:33:31.664Z,2.15
2023-04-10T01:36:02.515Z,2.11
2023-04-10T01:38:31.187Z,2.07
2023-04-10T01:40:59.929Z,2.03
2023-04-10T01:43:28.180Z,2.03
2023-04-10T01:45:58.583Z,2.01
2023-04-10T01:48:26.676Z,1.95
2023-04-10T01:50:55.716Z,1.88
2023-04-10T01:53:23.957Z,1.82
2023-04-10T01:55:52.219Z,1.79
2023-04-10T01:58:19.951Z,1.77
2023-04-10T02:00:47.777Z,1.73
2023-04-10T02:03:17.071Z,1.64
2023-04-10T02:05:53.507Z,1.63
2023-04-10T02:08:26.367Z,1.62
2023-04-10T02:10:57.861Z,1.59
2023-04-10T02:13:27.652Z,1.59
2023-04-10T02:15:57.070Z,1.58
2023-04-10T02:18:27.137Z,1.54
2023-04-10T02:20:55.849Z,1.53
2023-04-10T02:23:24.020Z,1.50
2023-04-10T02:25:51.872Z,1.43
2023-04-10T02:28:19.488Z,1.41
2023-04-10T02:30:47.146Z,1.37
2023-04-10T02:33:14.803Z,1.37
2023-04-10T02:35:43.853Z,1.29
2023-04-10T02:38:11.498Z,1.25
2023-04-10T02:40:39.132Z,1.22
2023-04-10T02:43:06.758Z,1.20
2023-04-10T02:45:34.397Z,1.11
2023-04-10T02:48:02.065Z,1.06
2023-04-10T02:50:32.270Z,0.98
2023-04-10T02:53:01.308Z,0.93
2023-04-10T02:55:28.990Z,0.92
2023-04-10T02:57:56.748Z,0.90
2023-04-10T03:00:24.571Z,0.80
2023-04-10T03:02:53.782Z,0.80
2023-04-10T03:05:21.813Z,0.80
2023-04-10T03:07:49.489Z,0.82
2023-04-10T03:10:18.488Z,0.83
2023-04-10T03:12:46.144Z,0.80
2023-04-10T03:15:13.784Z,0.77
2023-04-10T03:17:41.706Z,0.73
2023-04-10T03:20:11.032Z,0.74
2023-04-10T03:22:39.662Z,0.78
2023-04-10T03:25:08.137Z,0.83
2023-04-10T03:27:37.135Z,0.89
2023-04-10T03:30:05.406Z,0.94
2023-04-10T03:32:33.087Z,0.97
2023-04-10T03:35:00.725Z,0.93
2023-04-10T03:37:28.562Z,0.91
2023-04-10T03:39:56.515Z,0.85
2023-04-10T03:42:24.562Z,0.86
2023-04-10T03:44:53.605Z,0.84
2023-04-10T03:47:21.278Z,0.85
2023-04-10T03:49:48.933Z,0.82
2023-04-10T03:52:16.544Z,0.81
2023-04-10T03:54:44.192Z,0.81
2023-04-10T03:57:11.804Z,0.81
2023-04-10T03:59:39.412Z,0.78
2023-04-10T04:02:09.129Z,0.77
2023-04-10T04:04:36.905Z,0.66
2023-04-10T04:07:04.619Z,0.63
2023-04-10T04:09:32.273Z,0.62
2023-04-10T04:11:59.946Z,0.62
2023-04-10T04:14:27.547Z,0.58
2023-04-10T04:16:55.269Z,0.54
2023-04-10T04:19:24.249Z,0.48
2023-04-10T04:21:52.006Z,0.36
2023-04-10T04:24:19.643Z,0.33
2023-04-10T04:26:47.428Z,0.33
2023-04-10T04:29:15.087Z,0.31
2023-04-10T04:31:42.801Z,0.29
2023-04-10T04:34:10.487Z,0.20
2023-04-10T04:36:39.552Z,0.10
2023-04-10T04:39:07.164Z,0.12
2023-04-10T04:41:34.833Z,0.15
2023-04-10T04:44:03.134Z,0.15
2023-04-10T04:46:30.795Z,0.17
2023-04-10T04:48:58.461Z,0.17
2023-04-10T04:51:26.194Z,0.19
2023-04-10T04:53:55.431Z,0.20
2023-04-10T04:56:23.306Z,0.21
2023-04-10T04:58:51.115Z,0.23
2023-04-10T05:01:19.152Z,0.14
2023-04-10T05:03:47.248Z,0.08
2023-04-10T05:06:15.464Z,0.05
2023-04-10T05:08:43.094Z,0.07
2023-04-10T05:11:12.082Z,0.08
2023-04-10T05:13:39.724Z,0.10
2023-04-10T05:16:08.603Z,0.14
2023-04-10T05:18:36.859Z,0.17
2023-04-10T05:21:04.946Z,0.21
2023-04-10T05:23:32.570Z,0.22
2023-04-10T05:26:00.268Z,0.24
2023-04-10T05:28:29.240Z,0.27
2023-04-10T05:30:56.895Z,0.35
2023-04-10T05:33:24.718Z,0.40
2023-04-10T05:35:53.403Z,0.49
2023-04-10T05:38:21.313Z,0.59
2023-04-10T05:40:48.990Z,0.72
2023-04-10T05:43:16.658Z,0.86
2023-04-10T05:45:46.879Z,1.00
2023-04-10T05:48:14.482Z,1.11
2023-04-10T05:50:42.099Z,1.24
2023-04-10T05:53:14.552Z,1.37
2023-04-10T05:55:42.176Z,1.50
2023-04-10T05:58:09.967Z,1.68
2023-04-10T06:00:37.944Z,1.80
2023-04-10T06:03:07.047Z,1.95
2023-04-10T06:05:34.711Z,2.12
2023-04-10T06:08:02.329Z,2.35
2023-04-10T06:10:30.515Z,2.53
2023-04-10T06:12:58.165Z,2.71
2023-04-10T06:15:25.926Z,2.93
2023-04-10T06:17:53.997Z,3.16
2023-04-10T06:20:23.801Z,3.29
2023-04-10T06:22:52.869Z,3.41
2023-04-10T06:25:20.524Z,3.46
2023-04-10T06:27:48.125Z,3.57
2023-04-10T06:30:15.870Z,3.71
2023-04-10T06:32:43.500Z,3.89
2023-04-10T06:35:11.190Z,4.08
2023-04-10T06:37:40.290Z,4.27
2023-04-10T06:40:09.445Z,4.51
2023-04-10T06:42:37.409Z,4.76
2023-04-10T06:45:05.867Z,4.94
2023-04-10T06:47:33.535Z,5.15
2023-04-10T06:50:01.342Z,5.44
2023-04-10T06:52:28.984Z,5.65
2023-04-10T06:54:57.959Z,5.86
2023-04-10T06:57:25.657Z,6.07
2023-04-10T06:59:53.328Z,6.32
2023-04-10T07:02:21.367Z,6.55
2023-04-10T07:04:49.140Z,6.72
2023-04-10T07:07:18.027Z,6.86
2023-04-10T07:09:45.696Z,7.12
2023-04-10T07:12:14.660Z,7.39
2023-04-10T07:14:42.485Z,7.65
2023-04-10T07:17:10.332Z,7.84
2023-04-10T07:19:38.175Z,7.95
2023-04-10T07:22:05.785Z,8.13
2023-04-10T07:24:33.412Z,8.22
2023-04-10T07:27:01.923Z,8.45
2023-04-10T07:29:31.625Z,8.57
2023-04-10T07:31:59.421Z,8.72
2023-04-10T07:34:27.227Z,9.00
2023-04-10T07:36:54.892Z,9.26
2023-04-10T07:39:22.615Z,9.42
2023-04-10T07:41:50.519Z,9.54
2023-04-10T07:44:18.589Z,9.58
2023-04-10T07:46:47.599Z,9.81
2023-04-10T07:49:15.398Z,9.96
2023-04-10T07:51:42.998Z,10.10
2023-04-10T07:54:10.697Z,10.16
2023-04-10T07:56:38.339Z,10.34
2023-04-10T07:59:07.375Z,10.47
2023-04-10T08:01:35.051Z,10.68
2023-04-10T08:04:05.895Z,10.94
2023-04-10T08:06:33.894Z,11.03
2023-04-10T08:09:02.039Z,11.29
2023-04-10T08:11:31.432Z,11.29
2023-04-10T08:14:01.688Z,11.40
2023-04-10T08:16:30.693Z,11.52
2023-04-10T08:18:59.136Z,11.63
2023-04-10T08:21:29.369Z,11.76
2023-04-10T08:23:59.719Z,11.98
2023-04-10T08:26:27.998Z,12.02
2023-04-10T08:28:57.593Z,12.15
2023-04-10T08:31:27.360Z,12.40
2023-04-10T08:33:55.599Z,12.44
2023-04-10T08:36:23.712Z,12.57
2023-04-10T08:38:52.669Z,12.43
2023-04-10T08:41:20.944Z,12.77
2023-04-10T08:43:50.032Z,13.02
2023-04-10T08:46:17.911Z,13.18
2023-04-10T08:48:48.663Z,13.24
2023-04-10T08:51:20.496Z,13.41
2023-04-10T08:53:59.509Z,13.60
2023-04-10T08:56:27.284Z,13.64
2023-04-10T08:58:55.080Z,13.70
2023-04-10T09:01:22.955Z,13.80
2023-04-10T09:03:51.392Z,13.92
2023-04-10T09:06:19.076Z,14.03
2023-04-10T09:08:46.702Z,14.16
2023-04-10T09:11:15.880Z,14.03
2023-04-10T09:13:45.014Z,14.24
2023-04-10T09:16:14.410Z,14.26
2023-04-10T09:18:47.249Z,14.41
2023-04-10T09:21:16.654Z,14.60
2023-04-10T09:23:45.945Z,14.65
2023-04-10T09:26:28.640Z,14.73
2023-04-10T09:29:03.255Z,14.79
2023-04-10T09:31:32.911Z,14.66
2023-04-10T09:34:12.498Z,14.75
2023-04-10T09:36:41.495Z,14.87
2023-04-10T09:39:10.709Z,14.56
2023-04-10T09:41:50.742Z,14.89
2023-04-10T09:44:20.870Z,15.15
2023-04-10T09:46:49.655Z,15.19
2023-04-10T09:49:17.365Z,15.30
2023-04-10T09:51:45.557Z,15.39
2023-04-10T09:54:13.494Z,15.51
2023-04-10T09:56:41.288Z,15.62
2023-04-10T09:59:11.160Z,15.64
2023-04-10T10:01:41.189Z,15.54
2023-04-10T10:04:09.262Z,15.15
2023-04-10T10:06:39.395Z,15.46
2023-04-10T10:09:07.109Z,15.34
2023-04-10T10:11:36.209Z,15.46
2023-04-10T10:14:05.632Z,15.74
2023-04-10T10:16:36.593Z,15.71
2023-04-10T10:19:09.527Z,15.76
2023-04-10T10:21:37.637Z,15.42
2023-04-10T10:24:09.016Z,15.15
2023-04-10T10:26:38.842Z,15.22
2023-04-10T10:29:10.667Z,15.41
2023-04-10T10:31:39.786Z,15.47
2023-04-10T10:34:09.138Z,15.64
2023-04-10T10:36:37.369Z,15.92
2023-04-10T10:39:18.586Z,16.20
2023-04-10T10:41:54.246Z,16.21
2023-04-10T10:44:33.177Z,16.44
2023-04-10T10:47:06.812Z,16.39
2023-04-10T10:49:55.656Z,16.29
2023-04-10T10:52:54.103Z,16.53
2023-04-10T10:55:34.722Z,16.54
2023-04-10T10:58:05.111Z,16.29
2023-04-10T11:01:09.998Z,16.04
2023-04-10T11:03:40.164Z,16.15
2023-04-10T11:06:09.027Z,16.25
2023-04-10T11:08:43.422Z,15.87
2023-04-10T11:11:13.033Z,16.09
2023-04-10T11:13:41.909Z,16.47
2023-04-10T11:16:11.542Z,16.52
2023-04-10T11:19:14.017Z,16.72
2023-04-10T11:22:10.650Z,17.17
2023-04-10T11:24:54.790Z,17.11
2023-04-10T11:27:49.724Z,17.10
2023-04-10T11:30:28.335Z,17.18
2023-04-10T11:32:56.567Z,16.92
2023-04-10T11:35:26.883Z,16.90
2023-04-10T11:38:12.755Z,16.99
2023-04-10T11:41:01.573Z,16.86
2023-04-10T11:43:29.583Z,17.06
2023-04-10T11:46:04.532Z,17.22
2023-04-10T11:48:32.270Z,16.93
2023-04-10T11:51:08.640Z,17.02
2023-04-10T11:53:36.362Z,16.91
2023-04-10T11:56:04.451Z,16.93
2023-04-10T11:58:32.909Z,17.03
2023-04-10T12:01:02.434Z,17.03
2023-04-10T12:03:37.707Z,17.02
2023-04-10T12:06:09.699Z,17.50
2023-04-10T12:08:38.944Z,17.51
2023-04-10T12:11:07.343Z,17.57
2023-04-10T12:13:35.032Z,17.71
2023-04-10T12:16:04.357Z,17.43
2023-04-10T12:18:32.541Z,17.04
2023-04-10T12:21:00.935Z,17.08
2023-04-10T12:23:31.003Z,17.64
2023-04-10T12:26:13.009Z,17.78
2023-04-10T12:28:42.992Z,17.93
2023-04-10T12:31:11.148Z,17.67
2023-04-10T12:33:38.812Z,17.82
2023-04-10T12:36:06.941Z,17.84
2023-04-10T12:38:40.837Z,17.63
2023-04-10T12:41:09.770Z,17.50
2023-04-10T12:43:38.983Z,17.57
2023-04-10T12:46:07.900Z,17.53
2023-04-10T12:48:35.985Z,17.56
2023-04-10T12:51:04.058Z,17.52
2023-04-10T12:53:31.886Z,17.50
2023-04-10T12:56:03.602Z,17.71
2023-04-10T12:58:32.113Z,17.72
2023-04-10T13:01:01.365Z,17.74
2023-04-10T13:03:29.153Z,18.04
2023-04-10T13:05:57.091Z,18.06
2023-04-10T13:08:24.759Z,17.98
2023-04-10T13:10:52.416Z,18.19
2023-04-10T13:13:21.654Z,18.21
2023-04-10T13:15:49.557Z,18.36
2023-04-10T13:18:17.187Z,18.62
2023-04-10T13:20:45.113Z,18.45
2023-04-10T13:23:12.702Z,18.38
2023-04-10T13:25:43.918Z,18.59
2023-04-10T13:28:12.048Z,18.36
2023-04-10T13:30:42.504Z,18.33
2023-04-10T13:33:10.407Z,18.27
2023-04-10T13:35:40.304Z,18.12
2023-04-10T13:38:09.364Z,17.80
2023-04-10T13:40:37.473Z,17.64
2023-04-10T13:43:06.369Z,18.02
2023-04-10T13:45:34.929Z,18.39
2023-04-10T13:48:04.257Z,18.60
2023-04-10T13:50:32.165Z,18.67
2023-04-10T13:52:59.846Z,17.72
2023-04-10T13:55:27.537Z,17.95
2023-04-10T13:57:55.380Z,17.99
2023-04-10T14:00:23.273Z,18.10
2023-04-10T14:02:51.082Z,18.01
2023-04-10T14:05:20.333Z,18.16
2023-04-10T14:07:48.455Z,18.20
2023-04-10T14:10:16.074Z,18.30
2023-04-10T14:12:43.719Z,18.04
2023-04-10T14:15:11.720Z,18.02
2023-04-10T14:17:39.696Z,17.84
2023-04-10T14:20:11.398Z,17.99
2023-04-10T14:22:40.650Z,18.08
2023-04-10T14:25:13.596Z,18.05
2023-04-10T14:27:41.706Z,18.00
2023-04-10T14:30:10.312Z,17.94
2023-04-10T14:32:39.728Z,17.88
2023-04-10T14:35:08.373Z,17.90
2023-04-10T14:37:36.506Z,17.90
2023-04-10T14:40:06.848Z,17.66
2023-04-10T14:42:34.519Z,17.47
2023-04-10T14:45:02.150Z,17.41
2023-04-10T14:47:29.977Z,17.26
2023-04-10T14:49:57.625Z,17.14
2023-04-10T14:52:25.334Z,16.96
2023-04-10T14:54:52.944Z,16.95
2023-04-10T14:57:22.240Z,17.01
2023-04-10T14:59:49.898Z,17.15
2023-04-10T15:02:17.813Z,17.26
2023-04-10T15:04:45.615Z,17.03
2023-04-10T15:07:13.860Z,16.83
2023-04-10T15:09:41.497Z,16.87
2023-04-10T15:12:09.299Z,17.01
2023-04-10T15:14:38.359Z,17.03
2023-04-10T15:17:06.105Z,16.85
2023-04-10T15:19:33.782Z,16.82
2023-04-10T15:22:01.430Z,16.65
2023-04-10T15:24:32.424Z,16.73
2023-04-10T15:27:02.235Z,16.12
2023-04-10T15:29:29.885Z,16.29
2023-04-10T15:32:00.651Z,16.42
2023-04-10T15:34:28.260Z,16.43
2023-04-10T15:36:55.957Z,16.55
2023-04-10T15:39:23.724Z,16.62
2023-04-10T15:41:51.379Z,16.62
2023-04-10T15:44:19.073Z,16.63
2023-04-10T15:46:47.486Z,16.40
2023-04-10T15:49:29.759Z,16.40
2023-04-10T15:52:02.191Z,16.35
2023-04-10T15:54:29.953Z,16.32
2023-04-10T15:56:58.056Z,16.37
2023-04-10T15:59:26.115Z,16.43
2023-04-10T16:01:53.748Z,16.34
2023-04-10T16:04:23.029Z,16.32
2023-04-10T16:06:50.849Z,16.28
2023-04-10T16:11:49.187Z,16.21
2023-04-10T16:14:18.822Z,16.21
2023-04-10T16:16:46.710Z,16.24
2023-04-10T16:19:14.458Z,16.26
2023-04-10T16:21:43.655Z,16.23
2023-04-10T16:24:11.354Z,16.08
2023-04-10T16:26:39.202Z,16.08
2023-04-10T16:29:07.415Z,16.07
2023-04-10T16:31:35.101Z,15.80
2023-04-10T16:34:02.801Z,15.68
2023-04-10T16:36:31.412Z,15.64
2023-04-10T16:39:00.670Z,15.73
2023-04-10T16:41:28.514Z,15.76
2023-04-10T16:43:57.510Z,15.76
2023-04-10T16:46:25.703Z,15.70
2023-04-10T16:48:53.734Z,15.70
2023-04-10T16:51:21.786Z,15.77
2023-04-10T16:53:49.575Z,15.77
2023-04-10T16:56:19.011Z,15.75
2023-04-10T16:58:47.400Z,15.72
2023-04-10T17:01:17.722Z,15.67
2023-04-10T17:03:45.655Z,15.60
2023-04-10T17:06:13.742Z,15.53
2023-04-10T17:08:41.683Z,15.50
2023-04-10T17:11:09.364Z,15.46
2023-04-10T17:13:38.555Z,15.36
2023-04-10T17:16:07.190Z,15.30
2023-04-10T17:18:34.860Z,15.29
2023-04-10T17:21:02.510Z,15.23
2023-04-10T17:23:30.650Z,15.18
2023-04-10T17:25:58.299Z,15.14
2023-04-10T17:28:26.089Z,15.06
2023-04-10T17:30:55.163Z,14.97
2023-04-10T17:33:23.601Z,14.78
2023-04-10T17:35:52.049Z,14.74
2023-04-10T17:38:20.827Z,14.66
2023-04-10T17:40:48.574Z,14.59
2023-04-10T17:43:16.627Z,14.51
2023-04-10T17:45:44.656Z,14.42
2023-04-10T17:48:13.897Z,14.35
2023-04-10T17:50:41.601Z,14.25
2023-04-10T17:53:09.243Z,14.19
2023-04-10T17:55:39.332Z,14.06
2023-04-10T17:58:07.117Z,13.89
2023-04-10T18:00:35.104Z,13.83
2023-04-10T18:03:02.927Z,13.77
2023-04-10T18:05:32.193Z,13.74
2023-04-10T18:08:00.071Z,13.62
2023-04-10T18:10:27.758Z,13.47
2023-04-10T18:12:56.806Z,13.38
2023-04-10T18:15:24.494Z,13.37
2023-04-10T18:17:52.157Z,13.35
2023-04-10T18:20:20.883Z,13.25
2023-04-10T18:22:49.865Z,13.16
2023-04-10T18:25:18.630Z,13.21
2023-04-10T18:28:04.525Z,13.23
2023-04-10T18:30:38.988Z,13.27
2023-04-10T18:33:09.934Z,13.16
2023-04-10T18:35:38.965Z,13.07
2023-04-10T18:38:08.164Z,13.03
2023-04-10T18:40:39.472Z,13.01
2023-04-10T18:43:07.138Z,12.86
2023-04-10T18:45:35.119Z,12.82
2023-04-10T18:48:03.096Z,12.79
2023-04-10T18:50:31.909Z,12.67
2023-04-10T18:52:59.746Z,12.64
2023-04-10T18:55:28.841Z,12.52
2023-04-10T18:57:56.483Z,12.40
2023-04-10T19:00:24.134Z,12.32
2023-04-10T19:02:51.961Z,12.16
2023-04-10T19:05:19.710Z,12.08
2023-04-10T19:08:00.864Z,12.03
2023-04-10T19:10:33.218Z,11.99
2023-04-10T19:13:00.974Z,11.89
2023-04-10T19:15:28.939Z,11.73
2023-04-10T19:17:56.740Z,11.62
2023-04-10T19:20:51.229Z,11.46
2023-04-10T19:23:12.832Z,11.44
2023-04-10T19:25:42.566Z,11.40
2023-04-10T19:28:10.388Z,11.29
2023-04-10T19:30:38.053Z,11.11
2023-04-10T19:33:05.869Z,10.98
2023-04-10T19:35:33.748Z,10.91
2023-04-10T19:38:01.494Z,10.87
2023-04-10T19:40:29.130Z,10.83
2023-04-10T19:42:59.422Z,10.80
2023-04-10T19:45:29.179Z,10.81
2023-04-10T19:47:57.495Z,10.81
2023-04-10T19:50:25.373Z,10.83
2023-04-10T19:52:53.080Z,10.78
2023-04-10T19:55:21.020Z,10.75
2023-04-10T19:57:48.739Z,10.77
2023-04-10T20:00:18.299Z,10.74
2023-04-10T20:02:46.150Z,10.75
2023-04-10T20:05:14.084Z,10.71
2023-04-10T20:07:41.795Z,10.67
2023-04-10T20:10:10.511Z,10.63
2023-04-10T20:12:38.137Z,10.56
2023-04-10T20:15:07.346Z,10.57
2023-04-10T20:17:38.553Z,10.57
2023-04-10T20:20:07.473Z,10.60
2023-04-10T20:22:35.107Z,10.56
2023-04-10T20:25:02.790Z,10.51
2023-04-10T20:27:30.607Z,10.48
2023-04-10T20:29:58.340Z,10.45
2023-04-10T20:32:26.111Z,10.41
2023-04-10T20:34:55.236Z,10.38
2023-04-10T20:37:22.870Z,10.33
2023-04-10T20:39:50.795Z,10.27
2023-04-10T20:42:18.553Z,10.27
2023-04-10T20:44:46.296Z,10.29
2023-04-10T20:47:14.224Z,10.30
2023-04-10T20:49:42.031Z,10.22
2023-04-10T20:52:11.180Z,10.16
2023-04-10T20:54:38.852Z,10.12
2023-04-10T20:57:06.523Z,10.13
2023-04-10T20:59:35.963Z,10.11
2023-04-10T21:02:03.699Z,10.08
2023-04-10T21:04:32.669Z,10.05
2023-04-10T21:07:00.347Z,10.02
2023-04-10T21:09:29.435Z,10.02
2023-04-10T21:11:57.703Z,10.02
2023-04-10T21:14:25.404Z,9.99
2023-04-10T21:16:53.127Z,9.94
2023-04-10T21:19:20.877Z,9.88
2023-04-10T21:21:48.564Z,9.87
2023-04-10T21:24:16.247Z,9.81
2023-04-10T21:26:45.692Z,9.79
2023-04-10T21:29:13.382Z,9.75
2023-04-10T21:31:41.145Z,9.70
2023-04-10T21:34:08.856Z,9.58
2023-04-10T21:36:36.499Z,9.54
2023-04-10T21:39:08.866Z,9.50
2023-04-10T21:41:36.606Z,9.41
2023-04-10T21:44:05.805Z,9.35
2023-04-10T21:46:33.664Z,9.33
2023-04-10T21:49:01.497Z,9.27
2023-04-10T21:51:29.114Z,9.25
2023-04-10T21:53:56.783Z,9.24
2023-04-10T21:56:24.409Z,9.22
2023-04-10T21:58:53.053Z,9.19
2023-04-10T22:01:22.358Z,9.23
2023-04-10T22:03:50.737Z,9.25
2023-04-10T22:06:18.498Z,9.16
2023-04-10T22:08:46.143Z,9.11
2023-04-10T22:11:14.044Z,9.12
2023-04-10T22:13:41.685Z,9.12
2023-04-10T22:16:09.803Z,9.17
2023-04-10T22:18:38.850Z,9.19
2023-04-10T22:21:06.678Z,9.23
2023-04-10T22:23:34.291Z,9.25
2023-04-10T22:26:01.899Z,9.29
2023-04-10T22:28:29.796Z,9.35
2023-04-10T22:30:57.503Z,9.40
2023-04-10T22:33:25.245Z,9.44
2023-04-10T22:35:54.394Z,9.49
2023-04-10T22:38:22.100Z,9.53
2023-04-10T22:40:49.707Z,9.55
2023-04-10T22:43:17.417Z,9.60
2023-04-10T22:45:45.037Z,9.64
2023-04-10T22:48:12.671Z,9.68
2023-04-10T22:50:40.324Z,9.72
2023-04-10T22:53:10.109Z,9.74
2023-04-10T22:55:38.321Z,9.77
2023-04-10T22:58:05.998Z,9.79
2023-04-10T23:00:33.886Z,9.85
2023-04-10T23:03:01.660Z,9.89
2023-04-10T23:05:29.626Z,9.95
2023-04-10T23:07:57.621Z,9.95
2023-04-10T23:10:26.607Z,9.98
2023-04-10T23:12:54.200Z,10.05
2023-04-10T23:15:21.800Z,10.08
2023-04-10T23:17:49.523Z,10.10
2023-04-10T23:20:17.356Z,10.11
2023-04-10T23:22:44.981Z,10.15
2023-04-10T23:25:12.651Z,10.19
2023-04-10T23:27:41.638Z,10.25
2023-04-10T23:30:09.796Z,10.27
2023-04-10T23:32:37.425Z,10.29
2023-04-10T23:35:05.601Z,10.31
2023-04-10T23:37:33.846Z,10.33
2023-04-10T23:40:01.523Z,10.33
2023-04-10T23:42:29.148Z,10.35
2023-04-10T23:44:58.254Z,10.34
2023-04-10T23:47:25.859Z,10.32
2023-04-10T23:49:53.513Z,10.34
2023-04-10T23:52:21.216Z,10.35
2023-04-10T23:54:48.845Z,10.34
2023-04-10T23:57:16.569Z,10.32
2023-04-10T23:59:44.246Z,10.31
